Time;durP1;ratioP1;P1;durP2;ratioP2;P2;SDS_P1;SDS_P2;PMS_P1;PMS_P2;Temp;Humidity;BMP_temperature;BMP_pressure;BME280_temperature;BME280_humidity;BME280_pressure;Samples;Min_cycle;Max_cycle;Signal;HPM_P1;HPM_P2
2021/05/24 00:00:59;;;;;;;2.60;2.40;;;12.60;67.80;;;;;;5062582;28;20183;-90
2021/05/24 00:03:26;;;;;;;2.67;2.47;;;12.60;67.90;;;;;;5044799;28;20180;-90
2021/05/24 00:06:01;;;;;;;2.80;2.57;;;12.60;67.80;;;;;;5045317;28;20191;-90
2021/05/24 00:08:30;;;;;;;3.00;2.70;;;12.60;68.00;;;;;;5045704;28;20182;-90
2021/05/24 00:11:07;;;;;;;4.37;3.50;;;12.60;67.60;;;;;;5045595;28;20579;-90
2021/05/24 00:13:44;;;;;;;7.97;4.50;;;12.60;67.40;;;;;;5064331;28;20180;-91
2021/05/24 00:16:14;;;;;;;5.87;3.60;;;12.50;68.00;;;;;;5032144;28;20215;-90
2021/05/24 00:18:40;;;;;;;4.10;3.80;;;12.40;67.90;;;;;;5077007;28;20187;-91
2021/05/24 00:21:09;;;;;;;6.10;4.23;;;12.40;67.90;;;;;;5063784;28;20195;-91
2021/05/24 00:23:40;;;;;;;4.60;3.63;;;12.40;68.90;;;;;;5080751;28;20183;-91
2021/05/24 00:26:09;;;;;;;5.40;4.43;;;12.30;68.00;;;;;;5062983;28;20166;-91
2021/05/24 00:28:40;;;;;;;4.87;3.77;;;12.30;68.10;;;;;;5079965;28;20240;-91
2021/05/24 00:31:08;;;;;;;5.00;3.90;;;12.20;68.50;;;;;;5064762;28;20214;-90
2021/05/24 00:33:44;;;;;;;5.90;3.40;;;12.20;68.60;;;;;;5068422;28;20189;-90
2021/05/24 00:36:16;;;;;;;5.77;4.17;;;12.20;68.50;;;;;;5067923;28;20220;-90
2021/05/24 00:38:44;;;;;;;5.27;3.60;;;12.20;67.80;;;;;;5085278;28;20253;-90
2021/05/24 00:41:10;;;;;;;4.30;3.53;;;12.00;68.80;;;;;;5048243;28;20790;-90
2021/05/24 00:43:39;;;;;;;3.63;3.30;;;11.90;69.50;;;;;;5066384;28;20262;-90
2021/05/24 00:46:06;;;;;;;4.47;3.30;;;11.90;70.10;;;;;;5072575;28;20179;-90
2021/05/24 00:48:32;;;;;;;5.10;3.10;;;11.90;69.70;;;;;;5062382;28;20250;-90
2021/05/24 00:51:00;;;;;;;3.47;3.17;;;11.90;69.30;;;;;;5079353;28;20178;-91
2021/05/24 00:53:27;;;;;;;3.60;3.30;;;11.90;69.00;;;;;;5082500;28;20174;-91
2021/05/24 00:55:55;;;;;;;5.53;3.33;;;11.90;69.10;;;;;;5081530;28;20205;-90
2021/05/24 00:58:21;;;;;;;3.40;3.10;;;11.90;69.20;;;;;;5065419;28;20205;-90
2021/05/24 01:00:50;;;;;;;3.17;2.83;;;11.80;69.70;;;;;;5065794;28;20193;-90
2021/05/24 01:03:21;;;;;;;3.10;2.73;;;11.80;69.90;;;;;;5047684;28;20244;-90
2021/05/24 01:05:55;;;;;;;4.97;3.40;;;11.70;69.80;;;;;;5065558;28;20175;-90
2021/05/24 01:08:24;;;;;;;3.30;3.00;;;11.60;70.10;;;;;;5065903;28;20184;-90
2021/05/24 01:10:50;;;;;;;3.50;3.20;;;11.60;70.60;;;;;;5046275;28;20183;-90
2021/05/24 01:13:16;;;;;;;6.10;3.20;;;11.60;70.00;;;;;;5065276;28;20181;-90
2021/05/24 01:15:43;;;;;;;5.40;3.27;;;11.40;70.70;;;;;;5064042;28;20199;-91
2021/05/24 01:18:10;;;;;;;3.07;2.77;;;11.50;71.10;;;;;;5047000;28;20184;-90
2021/05/24 01:20:47;;;;;;;3.70;3.30;;;11.50;71.20;;;;;;5046389;28;20165;-90
2021/05/24 01:23:15;;;;;;;3.63;3.03;;;11.50;71.00;;;;;;5046620;28;20182;-90
2021/05/24 01:25:45;;;;;;;3.30;2.87;;;11.40;70.40;;;;;;5057079;28;20191;-90
2021/05/24 01:28:14;;;;;;;3.57;3.27;;;11.50;70.40;;;;;;5066788;28;20192;-89
2021/05/24 01:30:47;;;;;;;4.43;2.80;;;11.50;70.30;;;;;;5066492;28;20181;-90
2021/05/24 01:33:16;;;;;;;3.20;2.93;;;11.60;70.10;;;;;;5066158;28;20283;-88
2021/05/24 01:35:43;;;;;;;3.70;2.90;;;11.60;69.50;;;;;;5083774;28;20197;-88
2021/05/24 01:38:11;;;;;;;4.13;2.80;;;11.60;69.60;;;;;;5083977;28;20197;-88
2021/05/24 01:40:42;;;;;;;3.03;2.83;;;11.60;69.40;;;;;;5083215;28;20300;-90
2021/05/24 01:43:11;;;;;;;3.97;3.20;;;11.60;69.60;;;;;;5064136;28;20201;-90
2021/05/24 01:45:38;;;;;;;3.97;3.07;;;11.40;70.00;;;;;;5065118;28;20186;-90
2021/05/24 01:48:08;;;;;;;4.07;2.97;;;11.40;69.60;;;;;;5048344;28;20183;-90
2021/05/24 01:50:37;;;;;;;3.77;3.20;;;11.30;69.70;;;;;;5064755;28;20189;-90
2021/05/24 01:53:11;;;;;;;3.33;3.00;;;11.30;69.80;;;;;;5064065;28;20257;-90
2021/05/24 01:55:42;;;;;;;3.17;2.97;;;11.30;70.30;;;;;;5065079;28;20240;-90
2021/05/24 01:58:14;;;;;;;3.23;2.93;;;11.30;70.60;;;;;;5083061;28;20234;-90
2021/05/24 02:00:43;;;;;;;2.80;2.60;;;11.30;69.90;;;;;;5065165;28;20546;-90
2021/05/24 02:03:12;;;;;;;3.20;2.90;;;11.10;69.80;;;;;;5064865;28;20196;-88
2021/05/24 02:05:44;;;;;;;3.67;3.00;;;10.90;71.20;;;;;;5073590;28;20193;-90
2021/05/24 02:08:15;;;;;;;4.37;2.70;;;11.00;70.80;;;;;;5044416;28;20180;-91
2021/05/24 02:10:42;;;;;;;3.27;2.93;;;11.00;70.70;;;;;;5045019;28;20243;-91
2021/05/24 02:13:13;;;;;;;3.13;2.87;;;11.00;70.30;;;;;;5044772;28;20570;-90
2021/05/24 02:15:42;;;;;;;3.53;2.80;;;11.00;70.70;;;;;;5044596;28;20268;-91
2021/05/24 02:18:09;;;;;;;3.23;2.43;;;11.00;70.50;;;;;;5044305;28;20177;-90
2021/05/24 02:20:35;;;;;;;3.93;3.13;;;11.00;70.30;;;;;;5062170;28;20238;-90
2021/05/24 02:23:03;;;;;;;5.40;2.83;;;11.10;70.20;;;;;;5044993;28;20227;-90
2021/05/24 02:25:35;;;;;;;3.03;2.73;;;11.00;70.10;;;;;;5044269;28;20185;-90
2021/05/24 02:28:04;;;;;;;2.80;2.60;;;11.00;70.40;;;;;;5044871;28;20240;-90
2021/05/24 02:30:30;;;;;;;3.27;2.90;;;11.00;70.30;;;;;;5044370;28;20831;-91
2021/05/24 02:32:56;;;;;;;2.90;2.67;;;10.90;70.60;;;;;;5044975;28;20243;-90
2021/05/24 02:35:24;;;;;;;4.93;2.97;;;10.80;71.30;;;;;;5043849;28;20249;-91
2021/05/24 02:37:50;;;;;;;3.27;2.80;;;10.70;71.10;;;;;;5044463;28;20270;-90
2021/05/24 02:40:18;;;;;;;3.03;2.70;;;10.70;71.80;;;;;;5043980;28;20181;-90
2021/05/24 02:42:45;;;;;;;2.93;2.57;;;10.70;71.50;;;;;;5043748;28;20210;-90
2021/05/24 02:45:16;;;;;;;2.50;2.30;;;10.70;70.40;;;;;;5042952;28;20560;-88
2021/05/24 02:47:44;;;;;;;3.20;2.57;;;10.80;71.00;;;;;;5061746;28;20177;-88
2021/05/24 02:50:17;;;;;;;2.70;2.50;;;10.80;70.80;;;;;;5062446;28;20180;-88
2021/05/24 02:52:45;;;;;;;3.07;2.53;;;10.70;71.50;;;;;;5060591;28;20208;-90
2021/05/24 02:55:12;;;;;;;3.10;2.67;;;10.80;72.30;;;;;;5093957;23;20243;-87
2021/05/24 02:57:38;;;;;;;3.40;2.60;;;10.80;70.90;;;;;;5029720;28;20544;-88
2021/05/24 03:00:07;;;;;;;3.30;2.73;;;10.80;71.10;;;;;;5054844;28;20260;-87
2021/05/24 03:02:34;;;;;;;4.20;2.90;;;10.80;71.10;;;;;;5055218;28;20203;-88
2021/05/24 03:04:59;;;;;;;3.03;2.57;;;10.80;71.10;;;;;;5055313;28;20826;-88
2021/05/24 03:07:25;;;;;;;2.93;2.53;;;10.80;70.80;;;;;;5056215;28;20181;-88
2021/05/24 03:09:51;;;;;;;2.97;2.30;;;10.80;70.50;;;;;;5039246;28;20190;-88
2021/05/24 03:12:17;;;;;;;2.83;2.63;;;10.80;70.90;;;;;;5056224;28;20204;-89
2021/05/24 03:14:43;;;;;;;4.83;2.53;;;10.80;70.60;;;;;;5055912;28;20177;-89
2021/05/24 03:17:08;;;;;;;3.73;2.50;;;10.90;71.20;;;;;;5056191;28;20809;-88
2021/05/24 03:19:34;;;;;;;5.07;2.60;;;10.80;70.00;;;;;;5057577;28;20184;-88
2021/05/24 03:22:00;;;;;;;2.40;2.20;;;10.70;70.90;;;;;;5040692;28;20200;-88
2021/05/24 03:24:26;;;;;;;5.50;2.47;;;10.60;71.60;;;;;;5042744;28;20181;-89
2021/05/24 03:26:52;;;;;;;2.57;2.37;;;10.70;71.50;;;;;;5040709;28;20188;-87
2021/05/24 03:29:18;;;;;;;2.87;2.57;;;10.70;71.30;;;;;;5021456;28;20259;-88
2021/05/24 03:31:43;;;;;;;4.20;2.50;;;10.70;71.40;;;;;;5018047;28;20206;-88
2021/05/24 03:34:09;;;;;;;2.17;2.07;;;10.70;71.10;;;;;;5036071;28;20212;-89
2021/05/24 03:36:35;;;;;;;2.93;2.63;;;10.40;73.10;;;;;;5036363;28;20221;-88
2021/05/24 03:39:00;;;;;;;3.10;2.40;;;10.40;73.20;;;;;;5019557;28;20181;-89
2021/05/24 03:41:26;;;;;;;2.40;2.20;;;10.40;72.70;;;;;;5030993;28;20238;-87
2021/05/24 03:43:52;;;;;;;2.50;2.30;;;10.40;73.30;;;;;;5055960;28;20574;-88
2021/05/24 03:46:17;;;;;;;2.47;2.27;;;10.40;73.20;;;;;;5054712;28;20176;-88
2021/05/24 03:48:43;;;;;;;3.40;2.40;;;10.40;72.10;;;;;;5055963;28;20181;-87
2021/05/24 03:51:09;;;;;;;2.20;2.00;;;10.40;73.00;;;;;;5055104;28;20213;-88
2021/05/24 03:53:35;;;;;;;2.40;2.20;;;10.40;72.90;;;;;;5021818;28;20188;-87
2021/05/24 03:56:02;;;;;;;4.90;2.70;;;10.50;72.90;;;;;;5038102;28;20239;-88
2021/05/24 03:58:28;;;;;;;2.60;2.40;;;10.30;72.90;;;;;;5061373;28;20230;-88
2021/05/24 04:00:54;;;;;;;2.70;2.50;;;10.30;73.50;;;;;;5065444;28;20192;-87
2021/05/24 04:03:20;;;;;;;2.73;2.40;;;10.30;73.60;;;;;;5046878;28;20223;-88
2021/05/24 04:05:48;;;;;;;2.77;2.57;;;10.00;74.20;;;;;;5065155;28;20200;-88
2021/05/24 04:08:14;;;;;;;2.63;2.43;;;9.80;75.30;;;;;;5044956;28;20192;-88
2021/05/24 04:10:50;;;;;;;2.30;2.10;;;9.90;76.00;;;;;;5030289;28;20237;-88
2021/05/24 04:13:16;;;;;;;4.43;2.60;;;10.00;75.70;;;;;;5065131;28;20231;-88
2021/05/24 04:15:45;;;;;;;2.50;2.30;;;10.10;76.20;;;;;;5048311;28;20223;-89
2021/05/24 04:18:15;;;;;;;3.33;2.33;;;10.20;75.60;;;;;;5048280;28;20183;-88
2021/05/24 04:20:41;;;;;;;2.53;2.33;;;10.20;75.00;;;;;;5026316;28;20187;-89
2021/05/24 04:23:07;;;;;;;2.83;2.40;;;10.20;74.60;;;;;;5021157;28;20223;-88
2021/05/24 04:25:33;;;;;;;2.80;2.20;;;10.20;74.90;;;;;;5037417;28;20184;-88
2021/05/24 04:27:58;;;;;;;2.40;2.20;;;10.30;74.80;;;;;;5055709;28;20260;-88
2021/05/24 04:30:24;;;;;;;3.57;2.60;;;10.40;74.20;;;;;;5057949;28;20180;-88
2021/05/24 04:32:50;;;;;;;3.50;2.20;;;10.30;74.10;;;;;;5072216;28;20211;-87
2021/05/24 04:35:17;;;;;;;3.30;2.47;;;10.30;74.60;;;;;;5054850;28;20172;-87
2021/05/24 04:37:43;;;;;;;2.50;2.30;;;10.30;74.40;;;;;;5066072;28;20176;-87
2021/05/24 04:40:09;;;;;;;2.37;2.17;;;10.10;74.70;;;;;;5045449;28;20267;-88
2021/05/24 04:42:34;;;;;;;3.07;2.70;;;10.20;75.50;;;;;;5055122;28;20197;-88
2021/05/24 04:45:00;;;;;;;3.37;2.50;;;10.20;75.40;;;;;;5036472;28;20192;-88
2021/05/24 04:47:26;;;;;;;2.70;2.50;;;10.30;75.40;;;;;;5036607;28;20196;-88
2021/05/24 04:49:51;;;;;;;2.40;2.20;;;10.30;75.00;;;;;;5021051;28;20803;-87
2021/05/24 04:52:19;;;;;;;3.00;2.70;;;10.30;75.40;;;;;;5035305;28;20212;-88
2021/05/24 04:54:45;;;;;;;4.93;2.60;;;10.40;75.00;;;;;;5036820;28;20200;-88
2021/05/24 04:57:11;;;;;;;2.77;2.50;;;10.30;75.60;;;;;;5035150;28;20208;-89
2021/05/24 04:59:38;;;;;;;2.40;2.20;;;10.50;75.60;;;;;;5015497;28;20190;-90
2021/05/24 05:02:03;;;;;;;5.40;2.60;;;10.60;74.90;;;;;;5048041;28;20284;-89
2021/05/24 05:04:29;;;;;;;5.43;2.60;;;10.70;74.70;;;;;;5054459;28;20219;-89
2021/05/24 05:06:56;;;;;;;2.97;2.67;;;10.60;74.90;;;;;;5063276;28;20184;-89
2021/05/24 05:09:22;;;;;;;3.13;2.57;;;10.70;74.90;;;;;;5054860;28;20205;-89
2021/05/24 05:11:48;;;;;;;2.90;2.60;;;10.80;74.50;;;;;;5050151;28;20212;-89
2021/05/24 05:14:14;;;;;;;3.10;2.80;;;10.90;74.80;;;;;;5061096;28;20197;-89
2021/05/24 05:16:40;;;;;;;3.43;2.67;;;11.00;74.80;;;;;;5025823;28;20241;-90
2021/05/24 05:19:06;;;;;;;3.00;2.80;;;11.10;74.40;;;;;;5040733;28;20174;-90
2021/05/24 05:21:31;;;;;;;3.53;3.23;;;11.20;74.50;;;;;;5024520;28;20217;-89
2021/05/24 05:23:57;;;;;;;2.80;2.60;;;11.10;74.40;;;;;;5041953;28;20183;-89
2021/05/24 05:26:23;;;;;;;3.10;2.80;;;11.10;74.70;;;;;;5024407;28;20183;-90
2021/05/24 05:28:49;;;;;;;3.90;2.83;;;11.20;74.40;;;;;;5061358;28;20201;-89
2021/05/24 05:31:16;;;;;;;2.70;2.50;;;11.30;74.00;;;;;;5026923;28;20206;-91
2021/05/24 05:33:42;;;;;;;3.10;2.73;;;11.40;74.00;;;;;;5043623;28;20546;-90
2021/05/24 05:36:09;;;;;;;3.03;2.83;;;11.40;73.80;;;;;;5043659;28;20267;-89
2021/05/24 05:38:35;;;;;;;3.40;2.73;;;11.50;73.50;;;;;;5023308;28;20222;-87
2021/05/24 05:41:02;;;;;;;3.07;2.80;;;11.60;72.50;;;;;;5040918;28;20548;-86
2021/05/24 05:43:27;;;;;;;3.00;2.50;;;11.60;71.60;;;;;;5026217;28;20187;-89
2021/05/24 05:45:53;;;;;;;2.80;2.33;;;11.70;70.30;;;;;;5026784;28;20182;-88
2021/05/24 05:48:19;;;;;;;2.70;2.50;;;11.70;70.40;;;;;;5043208;28;20213;-89
2021/05/24 05:50:46;;;;;;;2.53;2.33;;;11.60;70.70;;;;;;5025829;28;20244;-89
2021/05/24 05:53:11;;;;;;;3.43;2.53;;;11.60;71.10;;;;;;5041986;28;20222;-88
2021/05/24 05:55:37;;;;;;;2.73;2.27;;;11.60;72.00;;;;;;5042590;28;20238;-88
2021/05/24 05:58:03;;;;;;;3.90;2.57;;;11.50;72.10;;;;;;5025571;28;20194;-89
2021/05/24 06:00:29;;;;;;;2.40;2.20;;;11.70;71.60;;;;;;5059630;28;20195;-89
2021/05/24 06:02:55;;;;;;;2.53;2.30;;;11.80;71.50;;;;;;5040940;28;20226;-89
2021/05/24 06:05:20;;;;;;;3.97;2.87;;;11.80;71.30;;;;;;5041038;28;20184;-89
2021/05/24 06:07:47;;;;;;;2.93;2.63;;;11.90;70.90;;;;;;5059632;28;20182;-89
2021/05/24 06:10:14;;;;;;;2.73;2.30;;;11.90;72.10;;;;;;5022375;28;20218;-88
2021/05/24 06:12:47;;;;;;;3.20;2.80;;;11.90;72.10;;;;;;5060266;28;20199;-88
2021/05/24 06:15:16;;;;;;;5.07;3.00;;;12.00;72.20;;;;;;5040019;28;20187;-89
2021/05/24 06:17:42;;;;;;;4.67;3.20;;;12.10;72.00;;;;;;5023089;28;20195;-88
2021/05/24 06:20:09;;;;;;;4.57;2.90;;;12.10;71.80;;;;;;5023631;28;20854;-89
2021/05/24 06:22:41;;;;;;;3.10;2.90;;;12.20;72.10;;;;;;5041430;28;20594;-89
2021/05/24 06:25:08;;;;;;;3.30;2.93;;;12.20;71.60;;;;;;5022084;28;20193;-90
2021/05/24 06:27:36;;;;;;;3.20;3.00;;;12.20;71.80;;;;;;5006521;28;20208;-89
2021/05/24 06:30:10;;;;;;;4.50;3.37;;;12.20;71.10;;;;;;5058694;28;20191;-90
2021/05/24 06:32:38;;;;;;;4.27;3.30;;;12.10;71.90;;;;;;5041904;28;20207;-90
2021/05/24 06:35:09;;;;;;;5.60;3.00;;;12.00;73.40;;;;;;5043166;28;20751;-90
2021/05/24 06:37:40;;;;;;;2.90;2.70;;;12.10;73.00;;;;;;5042569;28;20241;-90
2021/05/24 06:40:22;;;;;;;;;;;;;;;;;;;;;
2021/05/24 06:42:50;;;;;;;4.20;2.63;;;11.80;74.30;;;;;;5032442;23;20246;-91
2021/05/24 06:45:18;;;;;;;3.43;2.37;;;11.80;73.80;;;;;;5044619;28;20207;-87
2021/05/24 06:47:45;;;;;;;3.10;2.47;;;11.90;72.50;;;;;;5041678;28;20199;-89
2021/05/24 06:50:11;;;;;;;4.97;2.33;;;11.70;72.20;;;;;;5046074;28;20199;-90
2021/05/24 06:52:36;;;;;;;3.50;2.30;;;11.80;72.50;;;;;;5043227;28;20712;-89
2021/05/24 06:55:04;;;;;;;3.40;2.53;;;12.10;71.60;;;;;;5042729;28;20207;-89
2021/05/24 06:57:30;;;;;;;4.43;2.60;;;12.10;71.50;;;;;;5043688;28;20705;-88
2021/05/24 06:59:55;;;;;;;2.60;2.40;;;12.20;71.20;;;;;;5036787;28;20188;-89
2021/05/24 07:02:21;;;;;;;2.67;2.23;;;12.40;70.50;;;;;;5021418;28;20279;-89
2021/05/24 07:04:47;;;;;;;2.93;2.53;;;12.50;71.00;;;;;;5037308;28;20196;-88
2021/05/24 07:07:12;;;;;;;6.33;3.20;;;12.50;70.70;;;;;;5031764;28;20674;-88
2021/05/24 07:09:38;;;;;;;5.17;2.90;;;12.50;71.40;;;;;;5038890;28;20192;-88
2021/05/24 07:12:05;;;;;;;2.97;2.60;;;12.50;71.40;;;;;;5054395;28;20219;-91
2021/05/24 07:14:31;;;;;;;5.97;3.20;;;12.80;69.60;;;;;;5047303;28;20219;-90
2021/05/24 07:16:56;;;;;;;2.97;2.63;;;12.70;71.10;;;;;;5041605;28;20209;-91
2021/05/24 07:19:22;;;;;;;3.97;2.70;;;12.70;71.80;;;;;;5029356;28;20563;-89
2021/05/24 07:21:48;;;;;;;4.13;3.17;;;12.80;70.60;;;;;;5016849;28;20189;-90
2021/05/24 07:24:13;;;;;;;2.93;2.67;;;12.80;70.60;;;;;;5016614;28;20189;-89
2021/05/24 07:26:39;;;;;;;3.57;2.63;;;12.80;71.60;;;;;;5023565;28;20378;-92
2021/05/24 07:29:05;;;;;;;4.10;2.90;;;13.00;70.70;;;;;;5053690;28;20180;-90
2021/05/24 07:31:30;;;;;;;4.30;2.73;;;13.10;71.00;;;;;;5024262;28;20208;-90
2021/05/24 07:33:56;;;;;;;2.87;2.67;;;13.40;68.80;;;;;;5023219;28;20200;-90
2021/05/24 07:36:23;;;;;;;3.57;2.57;;;13.40;67.00;;;;;;5013814;28;20236;-88
2021/05/24 07:38:48;;;;;;;4.63;2.73;;;13.40;68.60;;;;;;5031583;28;20223;-90
2021/05/24 07:41:15;;;;;;;3.10;2.60;;;13.30;69.60;;;;;;5030662;28;20227;-89
2021/05/24 07:43:41;;;;;;;3.97;2.80;;;13.40;69.50;;;;;;5031857;28;20177;-89
2021/05/24 07:46:07;;;;;;;3.90;2.80;;;13.50;70.20;;;;;;5034443;28;20263;-90
2021/05/24 07:48:33;;;;;;;5.37;2.83;;;13.60;69.10;;;;;;5034353;28;20202;-87
2021/05/24 07:51:00;;;;;;;3.10;2.63;;;13.60;69.00;;;;;;5032987;28;20200;-87
2021/05/24 07:53:26;;;;;;;4.10;2.77;;;13.70;68.40;;;;;;5030752;28;20197;-87
2021/05/24 07:55:52;;;;;;;2.53;2.33;;;14.00;67.60;;;;;;5021641;28;20267;-87
2021/05/24 07:58:18;;;;;;;3.80;2.60;;;14.20;66.00;;;;;;5031870;28;20189;-88
2021/05/24 08:00:43;;;;;;;2.63;2.43;;;14.20;67.40;;;;;;5024670;28;20246;-88
2021/05/24 08:03:09;;;;;;;6.03;2.40;;;14.30;64.50;;;;;;5021732;28;20608;-88
2021/05/24 08:05:35;;;;;;;2.80;2.40;;;14.50;62.20;;;;;;5031279;28;20263;-88
2021/05/24 08:08:01;;;;;;;3.20;2.57;;;14.80;61.50;;;;;;5032347;28;20482;-88
2021/05/24 08:10:27;;;;;;;3.60;2.70;;;14.90;61.50;;;;;;5032686;28;20331;-89
2021/05/24 08:12:53;;;;;;;4.10;2.20;;;15.10;60.00;;;;;;5032824;28;20638;-89
2021/05/24 08:15:29;;;;;;;2.50;2.30;;;15.20;60.80;;;;;;5035694;28;20296;-88
2021/05/24 08:17:57;;;;;;;2.30;2.10;;;15.40;60.10;;;;;;5033673;28;20190;-88
2021/05/24 08:20:23;;;;;;;3.53;2.40;;;15.50;60.40;;;;;;5032165;28;20415;-87
2021/05/24 08:22:49;;;;;;;3.17;2.37;;;15.60;58.60;;;;;;5033180;28;20166;-88
2021/05/24 08:25:14;;;;;;;3.27;2.40;;;15.60;59.60;;;;;;5032192;28;20200;-88
2021/05/24 08:27:40;;;;;;;5.50;2.60;;;15.80;59.40;;;;;;5032618;28;20191;-87
2021/05/24 08:30:07;;;;;;;2.33;2.10;;;15.90;58.70;;;;;;5032224;28;20181;-88
2021/05/24 08:32:33;;;;;;;6.67;2.57;;;16.00;57.50;;;;;;5012468;28;20184;-88
2021/05/24 08:34:59;;;;;;;2.20;2.03;;;16.10;58.60;;;;;;5030829;28;20229;-88
2021/05/24 08:37:25;;;;;;;2.20;2.00;;;16.00;56.60;;;;;;5030668;28;20218;-88
2021/05/24 08:39:51;;;;;;;2.10;1.93;;;16.10;57.00;;;;;;5029360;28;20208;-88
2021/05/24 08:42:16;;;;;;;3.87;2.17;;;16.20;54.50;;;;;;5035933;28;20207;-88
2021/05/24 08:44:44;;;;;;;3.37;2.30;;;16.40;55.90;;;;;;5035611;28;20573;-87
2021/05/24 08:47:11;;;;;;;3.20;2.90;;;16.40;56.70;;;;;;5035231;28;20186;-87
2021/05/24 08:49:37;;;;;;;2.93;2.00;;;16.60;55.90;;;;;;5034942;28;20193;-87
2021/05/24 08:52:03;;;;;;;2.30;2.00;;;16.90;52.70;;;;;;5053503;28;20248;-88
2021/05/24 08:54:30;;;;;;;3.23;2.30;;;17.10;53.10;;;;;;5031083;28;20715;-88
2021/05/24 08:56:56;;;;;;;3.73;2.30;;;17.10;54.40;;;;;;5035422;28;20208;-88
2021/05/24 08:59:21;;;;;;;4.17;2.03;;;17.30;54.10;;;;;;5029831;28;20186;-88
2021/05/24 09:01:47;;;;;;;2.50;2.00;;;17.40;53.30;;;;;;5032608;28;20175;-88
2021/05/24 09:04:13;;;;;;;5.63;2.20;;;17.60;53.60;;;;;;5033889;28;20186;-88
2021/05/24 09:06:41;;;;;;;2.70;2.10;;;17.60;52.90;;;;;;5030235;28;20189;-88
2021/05/24 09:09:14;;;;;;;3.30;2.30;;;17.80;53.00;;;;;;5040458;28;20273;-88
2021/05/24 09:11:41;;;;;;;3.53;2.67;;;18.00;52.40;;;;;;5036058;28;20272;-83
2021/05/24 09:14:24;;;;;;;2.70;2.50;;;18.10;53.20;;;;;;5031447;28;20203;-86
2021/05/24 09:17:01;;;;;;;2.80;2.27;;;18.30;51.80;;;;;;5031671;28;20404;-86
2021/05/24 09:19:35;;;;;;;4.53;2.30;;;18.40;52.30;;;;;;5030400;28;20299;-87
2021/05/24 09:22:07;;;;;;;2.27;1.90;;;18.40;53.30;;;;;;5033741;28;20656;-85
2021/05/24 09:24:42;;;;;;;4.50;2.22;;;18.40;52.00;;;;;;5022005;28;20199;-90
2021/05/24 09:27:35;;;;;;;4.70;2.00;;;18.60;51.10;;;;;;5017623;28;20184;-87
2021/05/24 09:30:01;;;;;;;4.93;2.17;;;18.80;49.00;;;;;;5018887;28;20195;-87
2021/05/24 09:32:29;;;;;;;4.13;2.17;;;18.80;51.30;;;;;;5030758;28;20247;-86
2021/05/24 09:35:04;;;;;;;2.35;2.13;;;19.10;49.30;;;;;;5037730;28;20224;-86
2021/05/24 09:37:35;;;;;;;2.08;1.83;;;19.20;47.40;;;;;;5056875;28;20254;-86
2021/05/24 09:40:16;;;;;;;2.47;2.10;;;19.00;48.10;;;;;;5039731;28;20187;-87
2021/05/24 09:42:43;;;;;;;3.03;2.00;;;19.30;48.70;;;;;;5033788;28;20243;-87
2021/05/24 09:45:17;;;;;;;4.10;2.13;;;19.40;49.40;;;;;;5034554;28;20678;-86
2021/05/24 09:47:44;;;;;;;2.53;2.20;;;19.60;49.50;;;;;;5025388;28;20180;-86
2021/05/24 09:50:12;;;;;;;3.03;2.10;;;19.10;49.60;;;;;;5020955;28;20196;-86
2021/05/24 09:52:39;;;;;;;2.22;2.03;;;19.10;51.30;;;;;;5024334;28;20207;-86
2021/05/24 09:55:19;;;;;;;2.13;1.90;;;18.80;50.80;;;;;;5030488;28;20636;-86
2021/05/24 09:57:52;;;;;;;2.83;2.00;;;18.80;49.40;;;;;;5016682;28;20312;-86
2021/05/24 10:00:22;;;;;;;5.78;2.08;;;19.10;48.30;;;;;;5032185;28;20191;-86
2021/05/24 10:02:48;;;;;;;2.10;1.90;;;19.40;47.30;;;;;;5036461;28;20188;-86
2021/05/24 10:05:15;;;;;;;3.53;2.20;;;19.60;46.70;;;;;;5032365;28;20986;-87
2021/05/24 10:07:42;;;;;;;4.45;2.30;;;19.70;45.70;;;;;;5022666;28;20271;-86
2021/05/24 10:10:09;;;;;;;3.63;2.10;;;19.70;47.20;;;;;;5020312;28;20686;-86
2021/05/24 10:12:34;;;;;;;2.33;1.80;;;19.90;47.30;;;;;;5032188;28;20288;-86
2021/05/24 10:15:01;;;;;;;2.92;1.90;;;20.10;45.10;;;;;;5013556;28;20303;-86
2021/05/24 10:17:29;;;;;;;2.80;2.03;;;20.20;44.90;;;;;;5028449;28;20201;-86
2021/05/24 10:19:55;;;;;;;2.80;2.25;;;20.20;43.50;;;;;;5024266;28;20207;-86
2021/05/24 10:22:20;;;;;;;2.85;2.30;;;20.20;43.80;;;;;;5039921;28;20242;-85
2021/05/24 10:24:46;;;;;;;1.98;1.85;;;19.90;44.80;;;;;;5038975;28;20201;-86
2021/05/24 10:27:12;;;;;;;4.05;2.03;;;19.80;42.90;;;;;;5035918;28;20185;-86
2021/05/24 10:29:39;;;;;;;2.10;1.90;;;20.00;41.60;;;;;;5033429;28;20184;-86
2021/05/24 10:32:08;;;;;;;2.40;2.20;;;20.20;42.30;;;;;;5025286;28;20181;-86
2021/05/24 10:34:38;;;;;;;4.63;3.30;;;20.30;44.60;;;;;;5018167;28;20210;-86
2021/05/24 10:37:13;;;;;;;2.83;2.25;;;20.10;46.40;;;;;;5014711;28;20207;-86
2021/05/24 10:40:02;;;;;;;3.08;2.22;;;20.10;47.30;;;;;;5015408;28;20227;-87
2021/05/24 10:42:44;;;;;;;2.20;1.75;;;20.30;43.80;;;;;;5033607;28;20660;-85
2021/05/24 10:45:19;;;;;;;2.95;1.92;;;20.40;42.90;;;;;;5037672;28;20197;-86
2021/05/24 10:48:01;;;;;;;2.85;1.95;;;20.40;43.50;;;;;;5036364;28;20180;-86
2021/05/24 10:50:31;;;;;;;1.92;1.83;;;20.10;42.10;;;;;;5023913;28;20246;-86
2021/05/24 10:53:06;;;;;;;1.83;1.73;;;19.80;44.30;;;;;;5038356;28;20184;-87
2021/05/24 10:55:38;;;;;;;2.10;1.77;;;19.90;43.30;;;;;;5032990;28;20200;-87
2021/05/24 10:58:13;;;;;;;2.08;1.88;;;20.00;41.70;;;;;;5033360;28;20197;-87
2021/05/24 11:01:03;;;;;;;3.05;2.00;;;20.30;41.60;;;;;;5033129;28;20705;-87
2021/05/24 11:03:30;;;;;;;2.63;1.80;;;20.70;40.30;;;;;;5034252;28;20177;-87
2021/05/24 11:06:12;;;;;;;1.85;1.60;;;20.60;40.60;;;;;;5034245;28;20221;-88
2021/05/24 11:08:41;;;;;;;2.80;1.75;;;20.50;41.50;;;;;;5018007;28;20170;-88
2021/05/24 11:11:26;;;;;;;2.13;1.80;;;20.90;39.50;;;;;;5036816;28;20190;-87
2021/05/24 11:14:03;;;;;;;3.45;1.75;;;21.20;39.30;;;;;;5036603;28;20178;-88
2021/05/24 11:16:32;;;;;;;1.83;1.73;;;21.60;38.90;;;;;;5034045;28;20297;-88
2021/05/24 11:19:12;;;;;;;1.90;1.60;;;22.00;39.20;;;;;;5037093;28;20578;-87
2021/05/24 11:21:40;;;;;;;2.15;1.88;;;22.30;38.40;;;;;;5024816;28;20195;-87
2021/05/24 11:27:12;;;;;;;2.75;1.70;;;22.70;35.70;;;;;;5016634;28;20168;-87
2021/05/24 11:29:39;;;;;;;3.53;1.83;;;22.80;35.70;;;;;;5018802;28;20394;-87
2021/05/24 11:32:24;;;;;;;2.63;1.73;;;22.70;36.00;;;;;;5032377;28;20210;-87
2021/05/24 11:34:52;;;;;;;1.77;1.67;;;22.80;34.70;;;;;;5024049;28;20202;-87
2021/05/24 11:37:20;;;;;;;1.50;1.40;;;23.00;35.00;;;;;;5048899;28;20267;-86
2021/05/24 11:39:56;;;;;;;3.40;1.67;;;23.30;35.30;;;;;;5039208;28;20189;-87
2021/05/24 11:42:31;;;;;;;1.75;1.63;;;23.10;34.90;;;;;;5037500;28;20195;-87
2021/05/24 11:45:00;;;;;;;2.70;1.70;;;23.20;35.20;;;;;;5031829;28;20209;-87
2021/05/24 11:47:27;;;;;;;2.67;1.80;;;23.40;34.60;;;;;;5034993;28;20185;-87
2021/05/24 11:50:02;;;;;;;2.35;1.90;;;23.60;34.80;;;;;;5048291;28;20185;-87
2021/05/24 11:52:30;;;;;;;1.88;1.70;;;23.80;32.80;;;;;;5033659;28;20189;-87
2021/05/24 11:54:56;;;;;;;2.25;1.77;;;24.10;34.60;;;;;;5065667;28;20224;-86
2021/05/24 11:57:24;;;;;;;3.97;2.20;;;24.00;32.80;;;;;;5046371;28;20231;-87
2021/05/24 11:59:50;;;;;;;2.95;2.15;;;23.80;33.40;;;;;;5035950;28;20185;-87
2021/05/24 12:02:17;;;;;;;1.80;1.70;;;24.00;32.30;;;;;;5040876;28;20189;-87
2021/05/24 12:04:45;;;;;;;1.85;1.75;;;24.00;32.10;;;;;;5039630;28;20212;-86
2021/05/24 12:07:17;;;;;;;2.88;1.70;;;23.90;32.00;;;;;;5032525;28;20184;-88
2021/05/24 12:09:42;;;;;;;4.03;2.20;;;24.00;32.70;;;;;;5023002;28;20228;-87
2021/05/24 12:12:14;;;;;;;3.70;2.20;;;24.00;31.60;;;;;;5034422;28;20185;-87
2021/05/24 12:14:42;;;;;;;2.13;2.03;;;24.00;32.20;;;;;;5031063;28;20211;-87
2021/05/24 12:17:23;;;;;;;2.72;2.08;;;24.20;31.80;;;;;;5037978;28;20487;-86
2021/05/24 12:19:54;;;;;;;1.85;1.75;;;23.70;30.20;;;;;;5042031;28;20184;-90
2021/05/24 12:22:26;;;;;;;2.63;1.83;;;23.30;30.50;;;;;;5042510;28;20250;-90
2021/05/24 12:24:53;;;;;;;1.80;1.70;;;23.00;32.90;;;;;;5042525;28;20212;-84
2021/05/24 12:27:22;;;;;;;3.22;1.80;;;23.10;34.50;;;;;;5040332;28;20197;-89
2021/05/24 12:29:50;;;;;;;2.15;1.80;;;23.30;31.80;;;;;;5040421;28;20244;-89
2021/05/24 12:32:28;;;;;;;2.80;1.75;;;23.30;32.80;;;;;;5037939;28;20189;-88
2021/05/24 12:34:55;;;;;;;3.85;1.90;;;23.30;32.60;;;;;;5040614;28;20315;-89
2021/05/24 12:37:21;;;;;;;2.78;1.98;;;23.00;32.40;;;;;;5038624;28;20240;-88
2021/05/24 12:39:48;;;;;;;2.10;1.80;;;22.90;34.10;;;;;;5044523;28;20206;-89
2021/05/24 12:42:15;;;;;;;4.03;1.70;;;22.80;34.30;;;;;;5044015;28;20197;-86
2021/05/24 12:44:41;;;;;;;2.00;1.90;;;22.70;33.40;;;;;;5039188;28;20208;-89
2021/05/24 12:47:19;;;;;;;2.70;1.95;;;22.80;34.50;;;;;;5043554;28;20278;-89
2021/05/24 12:49:47;;;;;;;2.25;1.80;;;23.00;35.00;;;;;;5043234;28;20185;-89
2021/05/24 12:52:14;;;;;;;1.70;1.60;;;23.10;33.50;;;;;;5039349;28;20698;-89
2021/05/24 12:54:41;;;;;;;1.73;1.63;;;23.10;31.70;;;;;;5040436;28;20209;-89
2021/05/24 12:57:08;;;;;;;1.90;1.70;;;23.10;32.30;;;;;;5144870;23;20244;-89